• Join FlightAware (Why Join?)
  • Login
  • US Flag 
11:48AM EDT


 

Airport Tracker/Info


-or-


 

Live Flight TrackerFlight Track Log ✈ UAL4257 ✈ 27-Apr-2013 ✈ MMMY / MTY - KIAH

Flight Track Log - Related Links

Times and Time Zones

All times are in EDT time to prevent confusion due to time zone crossing. See the UAL4257 flight status page for this flight to view local times or setup timezone preferences in your user account.

Time Position Orientation Groundspeed Altitude Reporting Facility
EDT Latitude Longitude Course Direction KTS MPH feet Rate Location/Type
12:08PM 26.3412 -99.5002 44° Northeast  Level Estimated
12:08PM 25.9022 -99.7692 44° Northeast 276 318 13,900  Level Houston Center
12:09PM 26.4138 -99.4213 44° Northeast  Level Estimated
12:09PM 25.9636 -99.7142 39° Northeast 279 321 15,900  Level Houston Center
12:10PM 26.4863 -99.3424 44° Northeast  Level Estimated
12:10PM 26.0244 -99.6553 41° Northeast 284 327 17,700  Level Houston Center
12:11PM 26.5588 -99.2633 44° Northeast  Level Estimated
12:11PM 26.0972 -99.5758 44° Northeast 295 339 19,800  Level Houston Center
12:12PM 26.6313 -99.1841 44° Northeast  Level Estimated
12:12PM 26.1650 -99.5106 41° Northeast 309 356 21,600  Level Houston Center
12:13PM 26.7036 -99.1049 44° Northeast  Level Estimated
12:13PM 26.2358 -99.4442 40° Northeast 322 371 23,500  Level Houston Center
12:14PM 26.3094 -99.3747 40° Northeast 334 384 24,900 1,740 Climbing Houston Center
12:15PM 26.3828 -99.3044 41° Northeast 343 395 27,100 1,560 Climbing Houston Center
12:16PM 26.4575 -99.2367 39° Northeast 346 398 28,200 1,020 Climbing Houston Center
12:17PM 26.5358 -99.1611 41° Northeast 364 419 29,300 1,080 Climbing Houston Center
12:18PM 26.6344 -99.0656 41° Northeast 388 447 30,500 1,080 Climbing Houston Center
12:19PM 26.7200 -98.9825 41° Northeast 403 464 31,600 1,020 Climbing Houston Center
12:20PM 26.8086 -98.8978 40° Northeast 417 480 32,700 660 Climbing Houston Center
12:21PM 26.8994 -98.8100 41° Northeast 430 495 33,000 120 Climbing Houston Center
12:22PM 26.9983 -98.7144 41° Northeast 463 533 33,000  Level Houston Center
12:23PM 27.1192 -98.5958 41° Northeast 482 555 33,000  Level Houston Center
12:24PM 27.2208 -98.4989 40° Northeast 483 556 33,000  Level Houston Center
12:25PM 27.3197 -98.4008 41° Northeast 480 552 33,000  Level Houston Center
12:26PM 27.4183 -98.3044 41° Northeast 476 548 33,000  Level Houston Center
12:27PM 27.5181 -98.2078 41° Northeast 475 547 33,000  Level Houston Center
12:28PM 27.6175 -98.1108 41° Northeast 474 545 33,000  Level Houston Center
12:29PM 27.7353 -97.9933 41° Northeast 474 545 33,000  Level Houston Center
12:30PM 27.8336 -97.8961 41° Northeast 472 543 33,000  Level Houston Center
12:31PM 27.9328 -97.7994 41° Northeast 472 543 33,000  Level Houston Center
12:32PM 28.0256 -97.7086 41° Northeast 470 541 33,000  Level Houston Center
12:33PM 28.1436 -97.5919 41° Northeast 470 541 33,000  Level Houston Center
12:34PM 28.2397 -97.4925 42° Northeast 468 539 33,000  Level Houston Center
12:35PM 28.3378 -97.3964 41° Northeast 469 540 33,000  Level Houston Center
12:36PM 28.4356 -97.3000 41° Northeast 466 536 33,000  Level Houston Center
12:38PM 28.5322 -97.2014 42° Northeast 467 537 33,000 -300 Level Houston Center
12:39PM 28.6297 -97.1036 41° Northeast 468 539 32,400 -1,380 Descending Houston Center
12:40PM 28.7456 -96.9867 42° Northeast 466 536 30,200 -2,220 Descending Houston Center
12:41PM 28.8419 -96.8900 41° Northeast 464 534 27,900 -2,640 Descending Houston Center
12:42PM 28.9381 -96.7903 42° Northeast 468 539 24,800 -3,060 Descending Houston Center
12:43PM 29.0297 -96.6972 42° Northeast 449 517 21,700 -2,940 Descending Houston Center
12:44PM 29.1172 -96.6083 42° Northeast 429 494 18,800 -2,580 Descending Houston Center
12:45PM 29.2011 -96.5219 42° Northeast 412 474 16,400 -2,580 Descending Houston Center
12:45PM 29.2506 -96.4725 41° Northeast 399 459 15,100 -2,760 Descending Houston Center
12:46PM 29.2992 -96.4222 42° Northeast 400 460 13,600 -2,400 Descending Houston Center
12:46PM 29.3508 -96.3681 42° Northeast 395 455 12,200 -2,460 Descending Houston Center
12:47PM 29.3792 -96.3383 42° Northeast 393 452 11,100 -2,100 Descending Houston Center
12:47PM 29.4300 -96.2875 41° Northeast 385 443 10,100 -1,080 Descending Houston Center
12:48PM 29.4575 -96.2586 42° Northeast 381 438 10,000 -120 Descending Houston Center
12:48PM 29.4994 -96.2150 42° Northeast 365 420 10,000  Level Houston Center
12:49PM 29.5300 -96.1828 43° Northeast 358 412 10,000 -120 Level Houston Center
12:49PM 29.5669 -96.1211 55° Northeast 319 367 9,900 -540 Descending Houston Center
12:50PM 29.5797 -96.0978 58° Northeast 330 380 9,500 -1,500 Descending Houston Center
12:50PM 29.6100 -96.0369 60° Northeast 292 336 8,400 -1,800 Descending Houston Center
12:51PM 29.6283 -96.0017 59° Northeast 299 344 7,700 -1,320 Descending Houston Center
12:51PM 29.6494 -95.9603 60° Northeast 280 322 7,100 -720 Descending Houston Center
12:52PM 29.6675 -95.9264 58° Northeast 282 325 7,000 -120 Descending Houston Center
12:52PM 29.7031 -95.9014 31° Northeast 267 307 7,000  Level Houston Center
12:53PM 29.7353 -95.8844 25° Northeast 281 323 7,000  Level Houston Center
12:53PM 29.7792 -95.8589 27° Northeast 292 336 7,000  Level Houston Center
12:54PM 29.8039 -95.8369 38° Northeast 294 338 7,000  Level Houston Center
12:55PM 29.8436 -95.8058 34° Northeast 284 327 7,000 -720 Level Houston Center
12:55PM 29.8694 -95.7833 37° Northeast 289 333 6,300 -1,800 Descending Houston Center
12:56PM 29.9078 -95.7478 39° Northeast 285 328 5,200 -1,920 Descending Houston Center
12:56PM 29.9292 -95.7242 44° Northeast 287 330 4,400 -1,800 Descending Houston Center
12:57PM 29.9522 -95.6797 59° Northeast 272 313 3,400 -1,260 Descending Houston Center
12:57PM 29.9650 -95.6475 65° Northeast 277 319 3,100 -360 Descending Houston Center
12:58PM 29.9861 -95.5892 67° East 273 314 3,000 -120 Descending Houston Center
12:58PM 29.9936 -95.5669 69° East 273 314 3,000 -420 Level Houston Center
12:59PM 29.9931 -95.5039 91° East 258 297 2,600 -1,020 Descending Houston Center
12:59PM 29.9936 -95.4667 89° East 264 304 2,000 -1,140 Descending Houston Center
01:00PM 29.9928 -95.4314 92° East 184 212 1,500 -1,020 Descending Houston Center
01:00PM 29.9936 -95.4092 88° East 213 245 1,000 -900 Descending Houston Center
01:01PM 29.9931 -95.3881 92° East 133 153 700 -600 Descending Houston Center
01:01PM 29.9925 -95.3617 91° East 169 194 400 -540 Descending Houston Center
01:03PM 29.9833 -95.3333 49° Northeast  Level FlightAware Approximate
01:10PM 29.9844 -95.3414 49° Northeast  Level Estimated